Terminal Aerodrome Forecast
Issued by NWS

Home | Current Version | Previous Version | Text Only | Print | Product List | Glossary On
Versions: 1 2 3 4 5 6 7 8 9 10 11 12 13 14 15 16 17 18 19 20 21 22 23 24
462
FTUS45 KRIW 221729
TAFRKS
TAF
KRKS 221729Z 2218/2318 20008KT P6SM SCT110 BKN200
     FM230200 19011KT P6SM VCSH SCT030 BKN050
     FM230400 20011KT 3SM -SN BKN026
     FM231100 20012KT 1 1/2SM -SN OVC014=

USA.gov is the U.S. government's official web portal to all federal, state and local government web resources and services.